FYWH/WDH METAR and TAF weather

Enter ICAO airport designator
Station Type Date Time Source
FYWH METAR 2019/10/21 21:00 UTC NOAA

FYWH 212100Z 22010KT CAVOK 24/M09 Q1020 NOSIG


Station Type Date Time Source
FYWH Decoded METAR 2019/10/21 21:00 UTC NOAA

J. G. Strijdom, Namibia (FYWH) 22-29S 017-28E 1700M
Oct 21, 2019 - 05:00 PM EDT / 2019.10.21 2100 UTC
Wind: from the SW (220 degrees) at 12 MPH (10 KT):0
Visibility: greater than 7 mile(s):0
Temperature: 75 F (24 C)
Dew Point: 15 F (-9 C)
Relative Humidity: 10%
Pressure (altimeter): 30.12 in. Hg (1020 hPa)
ob: FYWH 212100Z 22010KT CAVOK 24/M09 Q1020 NOSIG
cycle: 21

Station Type Date Time Source
FYWH TAF 2019/10/21 18:36 UTC NOAA

TAF FYWH 211600Z 2118/2218 13005KT CAVOK
BECMG 2119/2121 22009KT
BECMG 2200/2202 06003KT
BECMG 2209/2211 27011KT

Example: see airport list